Time;durP1;ratioP1;P1;durP2;ratioP2;P2;SDS_P1;SDS_P2;PMS_P1;PMS_P2;Temp;Humidity;BMP_temperature;BMP_pressure;BME280_temperature;BME280_humidity;BME280_pressure;Samples;Min_cycle;Max_cycle;Signal;HPM_P1;HPM_P2
2023/04/12 00:01:34;;;;;;;;;;;;;;;7.59;76.86;95994.59;5035701;28;19943;-70
2023/04/12 00:04:01;;;;;;;;;;;;;;;7.58;78.30;95996.44;5036181;28;20013;-71
2023/04/12 00:06:31;;;;;;;;;;;;;;;7.58;77.73;95996.44;5019104;28;19938;-70
2023/04/12 00:08:57;;;;;;;;;;;;;;;7.56;77.68;95982.78;5035534;28;19938;-73
2023/04/12 00:11:23;;;;;;;;;;;;;;;7.56;78.10;95982.78;5035525;28;19946;-73
2023/04/12 00:13:50;;;;;;;;;;;;;;;7.57;79.05;95981.75;5035665;28;19968;-72
2023/04/12 00:16:16;;;;;;;;;;;;;;;7.59;78.88;95976.34;5035390;28;20385;-73
2023/04/12 00:18:44;;;;;;;;;;;;;;;7.51;79.02;95970.34;5036203;28;19941;-73
2023/04/12 00:21:10;;;;;;;;;;;;;;;7.49;79.06;95964.53;5036178;28;19940;-73
2023/04/12 00:23:39;;;;;;;;;;;;;;;7.50;79.69;95973.97;5035227;28;20309;-72
2023/04/12 00:26:05;;;;;;;;;;;;;;;7.52;80.80;95968.56;5035233;28;20424;-69
2023/04/12 00:28:31;;;;;;;;;;;;;;;7.53;79.87;95955.28;5035181;28;19947;-81
2023/04/12 00:30:57;;;;;;;;;;;;;;;7.55;81.74;95960.28;5035110;28;19944;-81
2023/04/12 00:33:23;;;;;;;;;;;;;;;7.55;82.37;95954.28;5035163;28;19942;-79
2023/04/12 00:35:49;;;;;;;;;;;;;;;7.49;82.43;95948.09;5035620;28;19961;-80
2023/04/12 00:38:16;;;;;;;;;;;;;;;7.40;81.96;95937.13;5035039;28;19949;-80
2023/04/12 00:40:41;;;;;;;;;;;;;;;7.33;84.48;95944.19;5035313;28;19947;-80
2023/04/12 00:43:09;;;;;;;;;;;;;;;7.28;82.39;95926.53;5035011;28;19944;-80
2023/04/12 00:45:36;;;;;;;;;;;;;;;7.24;84.26;95935.00;5035749;28;20297;-80
2023/04/12 00:48:04;;;;;;;;;;;;;;;7.19;85.66;95927.00;5035037;28;19935;-71
2023/04/12 00:50:29;;;;;;;;;;;;;;;7.16;85.36;95919.59;5034944;28;19945;-71
2023/04/12 00:52:57;;;;;;;;;;;;;;;7.11;85.54;95912.41;5034870;28;20438;-72
2023/04/12 00:55:23;;;;;;;;;;;;;;;7.13;87.21;95922.63;5034514;28;19960;-71
2023/04/12 00:57:50;;;;;;;;;;;;;;;7.16;87.70;95911.75;5034538;28;20436;-72
2023/04/12 01:00:16;;;;;;;;;;;;;;;7.11;87.53;95907.97;5034499;28;20428;-72
2023/04/12 01:02:49;;;;;;;;;;;;;;;7.13;87.32;95906.97;5034436;28;19933;-72
2023/04/12 01:05:20;;;;;;;;;;;;;;;7.13;87.49;95907.78;5035117;28;19938;-69
2023/04/12 01:07:57;;;;;;;;;;;;;;;7.14;88.21;95903.34;5035017;28;19953;-74
2023/04/12 01:10:23;;;;;;;;;;;;;;;7.16;89.39;95911.75;5035215;28;19943;-74
2023/04/12 01:13:07;;;;;;;;;;;;;;;7.10;92.84;95895.16;5034168;28;19939;-74
2023/04/12 01:15:36;;;;;;;;;;;;;;;7.04;91.34;95880.34;5035062;28;19968;-73
2023/04/12 01:18:13;;;;;;;;;;;;;;;7.01;90.01;95867.72;5034209;28;19949;-75
2023/04/12 01:20:43;;;;;;;;;;;;;;;7.00;91.62;95876.56;5034769;28;19942;-74
2023/04/12 01:23:27;;;;;;;;;;;;;;;6.99;94.56;95882.78;5034445;28;19949;-74
2023/04/12 01:25:59;;;;;;;;;;;;;;;6.91;93.43;95868.19;5034104;28;19938;-70
2023/04/12 01:28:36;;;;;;;;;;;;;;;6.82;95.24;95867.63;5034140;28;19945;-70
2023/04/12 01:31:03;;;;;;;;;;;;;;;6.78;95.55;95863.81;5034746;28;19950;-70
2023/04/12 01:33:33;;;;;;;;;;;;;;;6.79;94.86;95857.63;5033952;28;19941;-69
2023/04/12 01:36:03;;;;;;;;;;;;;;;6.81;95.44;95857.44;5033808;28;19964;-70
2023/04/12 01:38:29;;;;;;;;;;;;;;;6.79;95.84;95851.63;5033924;28;19951;-69
2023/04/12 01:40:55;;;;;;;;;;;;;;;6.78;96.10;95850.00;5033915;28;19937;-69
2023/04/12 01:43:21;;;;;;;;;;;;;;;6.78;95.64;95836.97;5033906;28;19948;-69
2023/04/12 01:45:47;;;;;;;;;;;;;;;6.80;99.35;95838.34;5033821;28;19974;-69
2023/04/12 01:48:13;;;;;;;;;;;;;;;6.81;96.43;95833.97;5016281;28;19940;-69
2023/04/12 01:50:57;;;;;;;;;;;;;;;6.82;96.06;95822.53;5034008;28;20032;-68
2023/04/12 01:53:26;;;;;;;;;;;;;;;6.87;95.48;95820.91;5034000;28;20414;-69
2023/04/12 01:55:57;;;;;;;;;;;;;;;6.91;93.91;95814.25;5033653;28;19963;-69
2023/04/12 01:58:23;;;;;;;;;;;;;;;6.96;96.32;95825.88;5034812;28;19942;-75
2023/04/12 02:00:50;;;;;;;;;;;;;;;6.96;94.91;95813.63;5033638;28;19938;-70
2023/04/12 02:03:19;;;;;;;;;;;;;;;6.99;94.23;95807.19;5034205;28;20398;-76
2023/04/12 02:05:45;;;;;;;;;;;;;;;7.01;94.45;95800.75;5034690;28;19935;-76
2023/04/12 02:08:11;;;;;;;;;;;;;;;7.04;96.03;95804.75;5034441;28;19968;-77
2023/04/12 02:10:39;;;;;;;;;;;;;;;7.03;94.71;95790.13;5033775;28;19935;-76
2023/04/12 02:13:05;;;;;;;;;;;;;;;7.05;94.70;95788.88;5033370;28;19969;-77
2023/04/12 02:15:31;;;;;;;;;;;;;;;7.08;96.83;95796.28;5034025;28;20319;-76
2023/04/12 02:17:58;;;;;;;;;;;;;;;7.09;97.30;95784.06;5033521;28;19943;-70
2023/04/12 02:20:24;;;;;;;;;;;;;;;7.09;95.31;95776.22;5033812;28;19945;-76
2023/04/12 02:22:50;;;;;;;;;;;;;;;7.08;94.75;95772.84;5033494;28;20299;-76
2023/04/12 02:25:16;;;;;;;;;;;;;;;7.03;95.40;95770.03;5033381;28;20026;-76
2023/04/12 02:27:45;;;;;;;;;;;;;;;7.01;95.40;95761.63;5033431;28;20284;-76
2023/04/12 02:30:12;;;;;;;;;;;;;;;7.00;97.12;95762.66;5033402;28;19943;-76
2023/04/12 02:32:44;;;;;;;;;;;;;;;7.01;95.65;95753.03;5033405;28;19939;-75
2023/04/12 02:35:11;;;;;;;;;;;;;;;7.01;96.37;95756.44;5033349;28;19951;-71
2023/04/12 02:37:37;;;;;;;;;;;;;;;7.00;95.86;95749.63;5033290;28;19954;-75
2023/04/12 02:40:05;;;;;;;;;;;;;;;7.00;95.92;95739.19;5033701;28;19943;-73
2023/04/12 02:42:31;;;;;;;;;;;;;;;6.98;98.36;95743.81;5033757;28;19938;-72
2023/04/12 02:44:57;;;;;;;;;;;;;;;6.94;97.99;95734.84;5033172;28;19943;-73
2023/04/12 02:47:27;;;;;;;;;;;;;;;6.93;99.37;95729.81;5033189;28;20410;-72
2023/04/12 02:49:53;;;;;;;;;;;;;;;6.89;98.40;95712.03;5033889;28;20270;-74
2023/04/12 02:52:19;;;;;;;;;;;;;;;6.87;98.34;95708.03;5033934;28;19958;-72
2023/04/12 02:54:46;;;;;;;;;;;;;;;6.89;99.92;95701.59;5033048;28;19966;-70
2023/04/12 02:57:12;;;;;;;;;;;;;;;6.90;100.00;95699.78;5033693;28;19947;-69
2023/04/12 02:59:38;;;;;;;;;;;;;;;6.88;98.86;95694.78;5015354;28;19946;-68
2023/04/12 03:02:04;;;;;;;;;;;;;;;6.89;99.79;95698.19;5015269;28;19941;-70
2023/04/12 03:04:30;;;;;;;;;;;;;;;6.94;98.78;95684.53;5033069;28;19941;-68
2023/04/12 03:06:55;;;;;;;;;;;;;;;6.96;100.00;95678.06;5035491;28;20419;-69
2023/04/12 03:09:22;;;;;;;;;;;;;;;6.99;98.21;95675.06;5036635;28;19991;-69
2023/04/12 03:11:47;;;;;;;;;;;;;;;7.00;100.00;95676.63;5036866;28;20410;-79
2023/04/12 03:14:13;;;;;;;;;;;;;;;6.98;99.11;95660.41;5036482;28;19973;-69
2023/04/12 03:16:39;;;;;;;;;;;;;;;6.96;99.34;95664.25;5036809;28;20003;-78
2023/04/12 03:19:05;;;;;;;;;;;;;;;6.91;100.00;95662.28;5037019;28;19947;-80
2023/04/12 03:21:32;;;;;;;;;;;;;;;6.90;100.00;95655.47;5036430;28;19938;-79
2023/04/12 03:23:58;;;;;;;;;;;;;;;6.90;100.00;95650.25;5036902;28;19949;-79
2023/04/12 03:26:25;;;;;;;;;;;;;;;6.93;99.13;95646.41;5036328;28;19947;-81
2023/04/12 03:28:54;;;;;;;;;;;;;;;6.91;99.59;95642.22;5036267;28;20387;-79
2023/04/12 03:31:20;;;;;;;;;;;;;;;6.89;100.00;95644.25;5036283;28;19943;-72
2023/04/12 03:33:46;;;;;;;;;;;;;;;6.86;100.00;95642.06;5036192;28;19941;-79
2023/04/12 03:36:12;;;;;;;;;;;;;;;6.83;99.74;95632.09;5035967;28;20018;-79
2023/04/12 03:38:38;;;;;;;;;;;;;;;6.79;100.00;95638.72;5036042;28;20017;-79
2023/04/12 03:41:04;;;;;;;;;;;;;;;6.77;100.00;95637.34;5036029;28;19968;-79
2023/04/12 03:43:34;;;;;;;;;;;;;;;6.74;100.00;95632.56;5036308;28;19942;-78
2023/04/12 03:46:01;;;;;;;;;;;;;;;6.71;100.00;95625.97;5036787;28;20295;-79
2023/04/12 03:48:27;;;;;;;;;;;;;;;6.67;100.00;95620.38;5035968;28;20310;-69
2023/04/12 03:50:53;;;;;;;;;;;;;;;6.64;100.00;95607.78;5036437;28;19939;-80
2023/04/12 03:53:20;;;;;;;;;;;;;;;6.65;100.00;95603.38;5035830;28;20407;-69
2023/04/12 03:55:45;;;;;;;;;;;;;;;6.68;100.00;95590.72;5035918;28;19963;-70
2023/04/12 03:58:15;;;;;;;;;;;;;;;6.74;100.00;95591.69;5035774;28;20410;-69
2023/04/12 04:00:41;;;;;;;;;;;;;;;6.80;100.00;95587.41;5036457;28;19939;-69
2023/04/12 04:03:07;;;;;;;;;;;;;;;6.78;100.00;95582.41;5036181;28;19946;-70
2023/04/12 04:05:33;;;;;;;;;;;;;;;6.77;100.00;95586.03;5036187;28;19940;-68
2023/04/12 04:08:01;;;;;;;;;;;;;;;6.77;100.00;95588.63;5035588;28;20026;-73
2023/04/12 04:10:27;;;;;;;;;;;;;;;6.78;100.00;95590.22;5035503;28;19941;-69
2023/04/12 04:12:53;;;;;;;;;;;;;;;6.69;100.00;95581.09;5035364;28;20025;-69
2023/04/12 04:15:19;;;;;;;;;;;;;;;6.63;100.00;95579.34;5035965;28;20323;-69
2023/04/12 04:17:47;;;;;;;;;;;;;;;6.61;100.00;95576.94;5034612;28;19937;-69
2023/04/12 04:20:13;;;;;;;;;;;;;;;6.60;100.00;95577.97;5035621;28;19947;-69
2023/04/12 04:22:39;;;;;;;;;;;;;;;6.58;100.00;95569.56;5036137;28;19935;-68
2023/04/12 04:25:05;;;;;;;;;;;;;;;6.53;100.00;95563.41;5036000;28;19936;-72
2023/04/12 04:27:33;;;;;;;;;;;;;;;6.50;100.00;95562.81;5035477;28;19949;-72
2023/04/12 04:30:01;;;;;;;;;;;;;;;6.50;100.00;95555.00;5035028;28;19945;-72
2023/04/12 04:32:27;;;;;;;;;;;;;;;6.53;100.00;95550.38;5035848;28;19940;-73
2023/04/12 04:35:00;;;;;;;;;;;;;;;6.56;100.00;95549.97;5034883;28;19965;-72
2023/04/12 04:37:26;;;;;;;;;;;;;;;6.56;100.00;95549.97;5035168;28;20423;-73
2023/04/12 04:39:52;;;;;;;;;;;;;;;6.57;100.00;95544.50;5035625;28;19932;-72
2023/04/12 04:42:18;;;;;;;;;;;;;;;6.57;100.00;95535.91;5034841;28;20388;-72
2023/04/12 04:44:44;;;;;;;;;;;;;;;6.57;100.00;95538.50;5034868;28;20402;-78
2023/04/12 04:47:10;;;;;;;;;;;;;;;6.59;100.00;95532.06;5034833;28;19994;-73
2023/04/12 04:49:36;;;;;;;;;;;;;;;6.61;100.00;95527.44;5034706;28;19951;-73
2023/04/12 04:52:03;;;;;;;;;;;;;;;6.54;100.00;95524.13;5034609;28;20382;-73
2023/04/12 04:54:29;;;;;;;;;;;;;;;6.51;100.00;95521.97;5035386;28;20285;-72
2023/04/12 04:56:56;;;;;;;;;;;;;;;6.50;100.00;95525.56;5034417;28;19987;-73
2023/04/12 04:59:22;;;;;;;;;;;;;;;6.52;100.00;95525.34;5035089;28;19948;-72
2023/04/12 05:01:48;;;;;;;;;;;;;;;6.47;100.00;95528.59;5034503;28;19942;-69
2023/04/12 05:04:14;;;;;;;;;;;;;;;6.42;100.00;95523.22;5034497;28;19946;-75
2023/04/12 05:06:40;;;;;;;;;;;;;;;6.42;100.00;95524.00;5035021;28;19936;-78
2023/04/12 05:09:06;;;;;;;;;;;;;;;6.43;100.00;95525.63;5034635;28;19943;-79
2023/04/12 05:11:32;;;;;;;;;;;;;;;6.44;100.00;95523.81;5034380;28;20448;-78
2023/04/12 05:13:58;;;;;;;;;;;;;;;6.47;100.00;95516.38;5034328;28;19968;-79
2023/04/12 05:16:24;;;;;;;;;;;;;;;6.52;100.00;95526.13;5034151;28;20028;-79
2023/04/12 05:18:50;;;;;;;;;;;;;;;6.57;100.00;95521.06;5034154;28;19950;-79
2023/04/12 05:21:15;;;;;;;;;;;;;;;6.61;100.00;95527.44;5034252;28;19945;-69
2023/04/12 05:23:44;;;;;;;;;;;;;;;6.60;100.00;95519.88;5034695;28;19948;-69
2023/04/12 05:26:10;;;;;;;;;;;;;;;6.59;100.00;95516.44;5034067;28;19937;-69
2023/04/12 05:28:36;;;;;;;;;;;;;;;6.62;100.00;95521.25;5034337;28;19940;-69
2023/04/12 05:31:02;;;;;;;;;;;;;;;6.64;100.00;95514.00;5033964;28;20011;-69
2023/04/12 05:33:28;;;;;;;;;;;;;;;6.62;100.00;95508.22;5034087;28;19953;-69
2023/04/12 05:35:54;;;;;;;;;;;;;;;6.59;100.00;95511.22;5033860;28;19961;-70
2023/04/12 05:38:20;;;;;;;;;;;;;;;6.59;100.00;95502.63;5034802;28;20010;-69
2023/04/12 05:40:48;;;;;;;;;;;;;;;6.60;100.00;95493.81;5034556;28;20030;-72
2023/04/12 05:43:14;;;;;;;;;;;;;;;6.59;100.00;95493.00;5033766;28;19944;-73
2023/04/12 05:45:40;;;;;;;;;;;;;;;6.56;100.00;95484.84;5033746;28;19948;-73
2023/04/12 05:48:06;;;;;;;;;;;;;;;6.54;100.00;95474.63;5033741;28;19938;-74
2023/04/12 05:50:32;;;;;;;;;;;;;;;6.55;100.00;95470.22;5033727;28;19946;-73
2023/04/12 05:52:59;;;;;;;;;;;;;;;6.55;100.00;95468.41;5033110;28;19943;-73
2023/04/12 05:55:26;;;;;;;;;;;;;;;6.58;100.00;95446.34;5033919;28;19968;-72
2023/04/12 05:57:53;;;;;;;;;;;;;;;6.57;100.00;95448.13;5033741;28;20446;-70
2023/04/12 06:00:20;;;;;;;;;;;;;;;6.58;100.00;95447.13;5033727;28;20304;-69
2023/04/12 06:02:46;;;;;;;;;;;;;;;6.61;100.00;95443.28;5033648;28;19946;-79
2023/04/12 06:05:13;;;;;;;;;;;;;;;6.62;100.00;95450.13;5033586;28;19943;-80
2023/04/12 06:07:41;;;;;;;;;;;;;;;6.63;100.00;95443.88;5034480;28;20410;-79
2023/04/12 06:10:07;;;;;;;;;;;;;;;6.66;100.00;95440.84;5033611;28;19940;-81
2023/04/12 06:12:33;;;;;;;;;;;;;;;6.71;100.00;95436.56;5033476;28;20417;-77
2023/04/12 06:14:59;;;;;;;;;;;;;;;6.76;100.00;95435.13;5034000;28;19944;-79
2023/04/12 06:17:25;;;;;;;;;;;;;;;6.77;100.00;95426.28;5034391;28;19943;-69
2023/04/12 06:19:51;;;;;;;;;;;;;;;6.75;100.00;95436.13;5033509;28;19996;-69
2023/04/12 06:22:17;;;;;;;;;;;;;;;6.77;100.00;95421.88;5033482;28;19940;-69
2023/04/12 06:24:42;;;;;;;;;;;;;;;6.79;100.00;95425.06;5033421;28;20023;-68
2023/04/12 06:27:08;;;;;;;;;;;;;;;6.80;100.00;95425.84;5033422;28;19953;-69
2023/04/12 06:29:34;;;;;;;;;;;;;;;6.78;100.00;95428.66;5033977;28;19939;-68
2023/04/12 06:32:00;;;;;;;;;;;;;;;6.78;100.00;95428.66;5033369;28;20347;-69
2023/04/12 06:34:26;;;;;;;;;;;;;;;6.77;100.00;95415.88;5033402;28;19939;-76
2023/04/12 06:36:52;;;;;;;;;;;;;;;6.80;100.00;95423.25;5033648;28;20432;-70
2023/04/12 06:39:18;;;;;;;;;;;;;;;6.81;100.00;95420.44;5033346;28;19971;-79
2023/04/12 06:41:46;;;;;;;;;;;;;;;6.81;100.00;95411.81;5036030;28;19935;-79
2023/04/12 06:44:12;;;;;;;;;;;;;;;6.84;100.00;95408.75;5037048;28;19940;-80
2023/04/12 06:46:37;;;;;;;;;;;;;;;6.86;100.00;95404.91;5037067;28;19938;-80
2023/04/12 06:49:03;;;;;;;;;;;;;;;6.87;100.00;95397.91;5037052;28;19945;-80
2023/04/12 06:51:29;;;;;;;;;;;;;;;6.89;100.00;95394.06;5037503;28;19944;-81
2023/04/12 06:53:56;;;;;;;;;;;;;;;6.97;100.00;95394.75;5036974;28;19938;-75
2023/04/12 06:56:22;;;;;;;;;;;;;;;7.01;100.00;95383.66;5036825;28;19959;-73
2023/04/12 06:58:48;;;;;;;;;;;;;;;7.07;100.00;95364.53;5036828;28;20044;-74
2023/04/12 07:01:14;;;;;;;;;;;;;;;7.12;100.00;95363.91;5037029;28;19937;-73
2023/04/12 07:03:40;;;;;;;;;;;;;;;7.19;100.00;95376.84;5036705;28;20029;-73
2023/04/12 07:06:05;;;;;;;;;;;;;;;7.24;100.00;95372.53;5037443;28;19947;-73
2023/04/12 07:08:31;;;;;;;;;;;;;;;7.27;100.00;95363.47;5036621;28;19985;-74
2023/04/12 07:10:57;;;;;;;;;;;;;;;7.31;100.00;95373.22;5036547;28;19944;-71
2023/04/12 07:13:23;;;;;;;;;;;;;;;7.35;100.00;95355.34;5036404;28;19967;-73
2023/04/12 07:15:53;;;;;;;;;;;;;;;7.43;100.00;95336.75;5036454;28;20087;-70
2023/04/12 07:18:19;;;;;;;;;;;;;;;7.48;100.00;95320.44;5036496;28;19945;-70
2023/04/12 07:20:46;;;;;;;;;;;;;;;7.56;100.00;95317.47;5036496;28;19952;-70
2023/04/12 07:23:12;;;;;;;;;;;;;;;7.64;100.00;95313.72;5036420;28;20398;-70
2023/04/12 07:25:38;;;;;;;;;;;;;;;7.69;100.00;95295.59;5036400;28;19940;-70
2023/04/12 07:28:04;;;;;;;;;;;;;;;7.78;100.00;95299.44;5036309;28;20429;-70
2023/04/12 07:30:30;;;;;;;;;;;;;;;7.86;100.00;95301.69;5036287;28;19946;-81
2023/04/12 07:32:56;;;;;;;;;;;;;;;7.96;100.00;95305.53;5018680;28;20018;-75
2023/04/12 07:35:22;;;;;;;;;;;;;;;8.00;100.00;95296.22;5036980;28;20400;-75
2023/04/12 07:37:48;;;;;;;;;;;;;;;8.07;100.00;95300.31;5036064;28;20003;-76
2023/04/12 07:40:14;;;;;;;;;;;;;;;8.15;100.00;95286.09;5036042;28;19954;-75
2023/04/12 07:42:40;;;;;;;;;;;;;;;8.24;100.00;95294.38;5036333;28;19942;-75
2023/04/12 07:45:06;;;;;;;;;;;;;;;8.30;100.00;95278.56;5036540;28;19942;-75
2023/04/12 07:47:32;;;;;;;;;;;;;;;8.37;100.00;95277.63;5035948;28;19945;-69
2023/04/12 07:49:57;;;;;;;;;;;;;;;8.41;100.00;95271.75;5035976;28;19983;-69
2023/04/12 07:52:23;;;;;;;;;;;;;;;8.42;100.00;95270.72;5035247;28;19986;-70
2023/04/12 07:54:49;;;;;;;;;;;;;;;8.43;100.00;95266.28;5018728;28;19943;-70
2023/04/12 07:57:15;;;;;;;;;;;;;;;8.47;100.00;95262.97;5036314;28;19954;-70
2023/04/12 07:59:41;;;;;;;;;;;;;;;8.50;100.00;95248.66;5036841;28;20397;-70
2023/04/12 08:02:07;;;;;;;;;;;;;;;8.54;100.00;95250.53;5036216;28;19943;-70
2023/04/12 08:04:33;;;;;;;;;;;;;;;8.54;100.00;95242.72;5035944;28;19937;-70
2023/04/12 08:06:58;;;;;;;;;;;;;;;8.58;100.00;95245.66;5036449;28;19936;-72
2023/04/12 08:09:24;;;;;;;;;;;;;;;8.60;100.00;95254.06;5036109;28;20458;-70
2023/04/12 08:11:51;;;;;;;;;;;;;;;8.63;100.00;95251.00;5035590;28;20366;-70
2023/04/12 08:14:17;;;;;;;;;;;;;;;8.70;100.00;95258.69;5035304;28;19972;-70
2023/04/12 08:16:42;;;;;;;;;;;;;;;8.73;100.00;95259.00;5035321;28;19975;-70
2023/04/12 08:19:08;;;;;;;;;;;;;;;8.73;100.00;95250.34;5035362;28;19940;-70
2023/04/12 08:21:34;;;;;;;;;;;;;;;8.73;100.00;95255.59;5035779;28;20298;-70
2023/04/12 08:24:00;;;;;;;;;;;;;;;8.75;100.00;95261.38;5035279;28;19948;-70
2023/04/12 08:26:28;;;;;;;;;;;;;;;8.78;100.00;95266.16;5036139;28;19970;-69
2023/04/12 08:28:56;;;;;;;;;;;;;;;8.79;100.00;95264.31;5035182;28;19961;-70
2023/04/12 08:31:22;;;;;;;;;;;;;;;8.83;100.00;95271.44;5035351;28;19940;-69
2023/04/12 08:33:48;;;;;;;;;;;;;;;8.87;100.00;95262.09;5035113;28;19952;-69
2023/04/12 08:36:14;;;;;;;;;;;;;;;8.97;100.00;95261.50;5035231;28;19971;-69
2023/04/12 08:38:40;;;;;;;;;;;;;;;9.01;100.00;95252.16;5035031;28;19945;-70
2023/04/12 08:41:06;;;;;;;;;;;;;;;9.01;100.00;95246.91;5035483;28;19947;-69
2023/04/12 08:43:33;;;;;;;;;;;;;;;9.03;100.00;95250.09;5034929;28;19967;-69
2023/04/12 08:45:59;;;;;;;;;;;;;;;9.06;100.00;95254.84;5035706;28;19946;-80
2023/04/12 08:48:26;;;;;;;;;;;;;;;9.05;100.00;95249.84;5034800;28;20440;-70
2023/04/12 08:50:54;;;;;;;;;;;;;;;9.03;100.00;95242.25;5034765;28;19946;-70
2023/04/12 08:53:20;;;;;;;;;;;;;;;9.02;100.00;95247.69;5035499;28;19952;-70
2023/04/12 08:55:46;;;;;;;;;;;;;;;9.04;100.00;95250.88;5016841;28;20331;-69
2023/04/12 08:58:13;;;;;;;;;;;;;;;9.07;100.00;95253.00;5034614;28;19944;-70
2023/04/12 09:00:40;;;;;;;;;;;;;;;9.07;100.00;95237.31;5034675;28;20382;-70
2023/04/12 09:03:06;;;;;;;;;;;;;;;9.07;100.00;95245.16;5034525;28;19953;-70
2023/04/12 09:05:32;;;;;;;;;;;;;;;9.11;100.00;95233.19;5034240;28;20313;-70
2023/04/12 09:07:58;;;;;;;;;;;;;;;9.17;100.00;95240.09;5034997;28;19942;-70
2023/04/12 09:10:30;;;;;;;;;;;;;;;9.19;100.00;95239.84;5034430;28;20392;-70
2023/04/12 09:12:56;;;;;;;;;;;;;;;9.24;100.00;95245.97;5016574;28;19995;-70
2023/04/12 09:15:22;;;;;;;;;;;;;;;9.28;100.00;95231.38;5035162;28;20283;-69
2023/04/12 09:17:48;;;;;;;;;;;;;;;9.32;100.00;95219.41;5034691;28;19959;-70
2023/04/12 09:20:17;;;;;;;;;;;;;;;9.35;100.00;95220.75;5034533;28;20403;-69
2023/04/12 09:22:44;;;;;;;;;;;;;;;9.39;100.00;95216.63;5034800;28;19942;-69
2023/04/12 09:25:10;;;;;;;;;;;;;;;9.42;100.00;95215.34;5034096;28;19951;-75
2023/04/12 09:27:46;;;;;;;;;;;;;;;9.40;100.00;95212.97;5034131;28;19942;-74
2023/04/12 09:30:13;;;;;;;;;;;;;;;9.41;100.00;95221.59;5034020;28;19936;-74
2023/04/12 09:32:38;;;;;;;;;;;;;;;9.41;100.00;95221.59;5034497;28;19945;-73
2023/04/12 09:35:05;;;;;;;;;;;;;;;9.39;100.00;95227.09;5033955;28;19944;-73
2023/04/12 09:37:31;;;;;;;;;;;;;;;9.36;100.00;95235.41;5034309;28;20421;-73
2023/04/12 09:40:00;;;;;;;;;;;;;;;9.38;100.00;95233.34;5034057;28;19952;-73
2023/04/12 09:42:27;;;;;;;;;;;;;;;9.43;100.00;95219.53;5034514;28;19944;-74
2023/04/12 09:44:53;;;;;;;;;;;;;;;9.44;100.00;95208.81;5033906;28;19940;-73
2023/04/12 09:47:19;;;;;;;;;;;;;;;9.47;100.00;95204.94;5034927;28;19943;-73
2023/04/12 09:49:45;;;;;;;;;;;;;;;9.48;100.00;95194.22;5034658;28;19943;-73
2023/04/12 09:52:12;;;;;;;;;;;;;;;9.60;100.00;95195.97;5033732;28;20056;-73
2023/04/12 09:54:42;;;;;;;;;;;;;;;9.73;100.00;95203.47;5033731;28;20359;-73
2023/04/12 09:57:08;;;;;;;;;;;;;;;9.79;100.00;95204.31;5033934;28;19960;-75
2023/04/12 09:59:40;;;;;;;;;;;;;;;9.85;100.00;95190.22;5034565;28;20288;-72
2023/04/12 10:02:10;;;;;;;;;;;;;;;9.95;100.00;95185.94;5034539;28;20378;-81
2023/04/12 10:04:38;;;;;;;;;;;;;;;10.04;100.00;95186.28;5033700;28;19944;-82
2023/04/12 10:07:04;;;;;;;;;;;;;;;10.09;100.00;95194.19;5033916;28;19947;-82
2023/04/12 10:09:31;;;;;;;;;;;;;;;10.13;100.00;95182.19;5034494;28;19973;-81
2023/04/12 10:11:58;;;;;;;;;;;;;;;10.20;100.00;95197.72;5034484;28;19941;-82
2023/04/12 10:14:26;;;;;;;;;;;;;;;10.28;100.00;95171.06;5033667;28;19971;-80
2023/04/12 10:16:55;;;;;;;;;;;;;;;10.30;100.00;95174.25;5036069;28;19964;-73
2023/04/12 10:19:22;;;;;;;;;;;;;;;10.36;100.00;95173.28;5037628;28;19942;-75
2023/04/12 10:21:48;;;;;;;;;;;;;;;10.45;100.00;95165.75;5038716;28;19945;-75
2023/04/12 10:24:16;;;;;;;;;;;;;;;10.50;100.00;95175.53;5038150;28;19943;-75
2023/04/12 10:26:45;;;;;;;;;;;;;;;10.57;100.00;95155.13;5037517;28;20419;-75
2023/04/12 10:29:26;;;;;;;;;;;;;;;10.59;100.00;95158.28;5037463;28;19939;-75
2023/04/12 10:31:55;;;;;;;;;;;;;;;10.67;100.00;95165.69;5037761;28;19939;-75
2023/04/12 10:34:27;;;;;;;;;;;;;;;10.81;100.00;95152.94;5037394;28;20391;-80
2023/04/12 10:36:54;;;;;;;;;;;;;;;10.96;100.00;95166.19;5037487;28;19963;-69
2023/04/12 10:39:41;;;;;;;;;;;;;;;11.15;100.00;95163.19;5037579;28;19951;-69
2023/04/12 10:42:17;;;;;;;;;;;;;;;11.27;100.00;95153.25;5037194;28;19944;-69
2023/04/12 10:44:43;;;;;;;;;;;;;;;11.27;100.00;95145.38;5037161;28;20282;-69
2023/04/12 10:47:10;;;;;;;;;;;;;;;11.37;100.00;95147.28;5037667;28;19944;-69
2023/04/12 10:49:36;;;;;;;;;;;;;;;11.48;100.00;95129.75;5037171;28;19940;-69
2023/04/12 10:52:09;;;;;;;;;;;;;;;11.63;100.00;95142.16;5037630;28;19940;-76
2023/04/12 10:54:35;;;;;;;;;;;;;;;11.78;100.00;95134.34;5037019;28;19962;-70
2023/04/12 10:57:02;;;;;;;;;;;;;;;11.86;100.00;95120.69;5036842;28;20429;-76
2023/04/12 10:59:58;;;;;;;;;;;;;;;11.97;100.00;95126.81;5037760;28;19939;-75
2023/04/12 11:02:24;;;;;;;;;;;;;;;11.82;96.75;95127.50;5035975;28;19944;-76
2023/04/12 11:05:08;;;;;;;;;;;;;;;11.79;98.55;95122.78;5037383;28;20005;-75
2023/04/12 11:07:39;;;;;;;;;;;;;;;11.67;97.06;95122.22;5036767;28;19947;-76
2023/04/12 11:10:11;;;;;;;;;;;;;;;11.67;99.99;95124.84;5037541;28;19945;-70
2023/04/12 11:12:37;;;;;;;;;;;;;;;11.72;98.60;95119.63;5036933;28;19940;-72
2023/04/12 11:15:05;;;;;;;;;;;;;;;11.74;96.61;95101.78;5020073;28;19944;-76
2023/04/12 11:17:30;;;;;;;;;;;;;;;11.79;97.92;95105.19;5036550;28;20323;-76
2023/04/12 11:19:58;;;;;;;;;;;;;;;11.84;98.27;95108.88;5036450;28;19948;-77
2023/04/12 11:22:26;;;;;;;;;;;;;;;11.88;96.21;95073.97;5036459;28;19939;-76
2023/04/12 11:24:53;;;;;;;;;;;;;;;11.95;96.84;95092.16;5036452;28;20311;-76
2023/04/12 11:27:19;;;;;;;;;;;;;;;12.08;97.68;95091.63;5037049;28;19944;-76
2023/04/12 11:29:47;;;;;;;;;;;;;;;12.19;99.45;95092.44;5036438;28;19959;-70
2023/04/12 11:32:13;;;;;;;;;;;;;;;12.29;96.39;95074.06;5036399;28;19950;-70
2023/04/12 11:34:40;;;;;;;;;;;;;;;12.32;94.82;95076.16;5037123;28;20261;-69
2023/04/12 11:37:07;;;;;;;;;;;;;;;12.51;93.17;95065.13;5036309;28;20437;-70
2023/04/12 11:39:37;;;;;;;;;;;;;;;12.69;93.22;95063.81;5036801;28;20323;-70
2023/04/12 11:42:03;;;;;;;;;;;;;;;12.84;93.63;95055.09;5019285;28;19953;-71
2023/04/12 11:44:31;;;;;;;;;;;;;;;12.89;92.73;95055.06;5036135;28;20375;-70
2023/04/12 11:46:57;;;;;;;;;;;;;;;12.91;91.06;95045.06;5036902;28;20406;-84
2023/04/12 11:49:23;;;;;;;;;;;;;;;12.87;92.06;95047.47;5036009;28;19943;-77
2023/04/12 11:51:59;;;;;;;;;;;;;;;12.70;89.70;95034.59;5036768;28;19991;-83
2023/04/12 11:54:27;;;;;;;;;;;;;;;12.51;90.90;95050.13;5035904;28;20009;-85
2023/04/12 11:56:56;;;;;;;;;;;;;;;12.45;95.24;95063.53;5035836;28;19954;-84
2023/04/12 11:59:21;;;;;;;;;;;;;;;12.44;92.72;95046.97;5035880;28;19941;-84
2023/04/12 12:01:50;;;;;;;;;;;;;;;12.44;95.09;95057.50;5035810;28;19940;-84
2023/04/12 12:04:16;;;;;;;;;;;;;;;12.44;94.66;95052.25;5036299;28;19943;-85
2023/04/12 12:06:43;;;;;;;;;;;;;;;12.47;95.58;95053.53;5035740;28;19995;-74
2023/04/12 12:09:10;;;;;;;;;;;;;;;12.51;93.52;95041.44;5036188;28;20334;-85
2023/04/12 12:11:36;;;;;;;;;;;;;;;12.59;91.77;95035.66;5035608;28;19944;-83
2023/04/12 12:14:02;;;;;;;;;;;;;;;12.55;90.16;95024.88;5035804;28;20018;-86
2023/04/12 12:16:28;;;;;;;;;;;;;;;12.47;88.89;95019.38;5035465;28;19965;-83
2023/04/12 12:18:55;;;;;;;;;;;;;;;12.59;89.13;95012.00;5035525;28;19947;-84
2023/04/12 12:21:21;;;;;;;;;;;;;;;12.89;90.29;95018.25;5035669;28;20404;-85
2023/04/12 12:23:47;;;;;;;;;;;;;;;13.20;87.53;95006.56;5035557;28;19956;-85
2023/04/12 12:26:21;;;;;;;;;;;;;;;13.55;85.83;94978.53;5035636;28;20037;-86
2023/04/12 12:28:50;;;;;;;;;;;;;;;13.83;83.05;94959.66;5036099;28;20279;-75
2023/04/12 12:31:24;;;;;;;;;;;;;;;13.90;82.94;94960.91;5035232;28;20443;-75
2023/04/12 12:33:53;;;;;;;;;;;;;;;13.90;81.25;94939.03;5036037;28;19945;-75
2023/04/12 12:36:19;;;;;;;;;;;;;;;13.83;81.70;94965.69;5034941;28;19963;-76
2023/04/12 12:38:47;;;;;;;;;;;;;;;13.59;80.99;94955.84;5035441;28;19944;-75
2023/04/12 12:41:17;;;;;;;;;;;;;;;13.44;83.58;94981.47;5035581;28;20303;-76
2023/04/12 12:43:49;;;;;;;;;;;;;;;13.24;82.49;94961.28;5035195;28;20405;-70
2023/04/12 12:46:16;;;;;;;;;;;;;;;13.11;82.39;94966.06;5034840;28;19947;-70
2023/04/12 12:48:45;;;;;;;;;;;;;;;13.11;82.55;94957.41;5034919;28;19947;-70